sensor_id;sensor_type;location;lat;lon;timestamp;P1;durP1;ratioP1;P2;durP2;ratioP2
40967;SDS011;57377;45.130;6.038;2023-05-07T15:17:21;8.68;;;5.18;;
40967;SDS011;57377;45.130;6.038;2023-05-07T15:19:46;7.97;;;4.97;;
40967;SDS011;57377;45.130;6.038;2023-05-07T15:22:12;8.80;;;4.25;;
40967;SDS011;57377;45.130;6.038;2023-05-07T15:24:37;7.18;;;4.90;;
40967;SDS011;57377;45.130;6.038;2023-05-07T15:27:03;10.93;;;4.03;;
40967;SDS011;57377;45.130;6.038;2023-05-07T15:29:28;10.57;;;3.97;;
40967;SDS011;57377;45.130;6.038;2023-05-07T15:31:54;4.45;;;3.00;;
40967;SDS011;57377;45.130;6.038;2023-05-07T15:34:20;6.30;;;3.55;;
40967;SDS011;57377;45.130;6.038;2023-05-07T15:36:46;11.33;;;3.30;;
40967;SDS011;57377;45.130;6.038;2023-05-07T15:39:11;5.82;;;3.75;;
40967;SDS011;57377;45.130;6.038;2023-05-07T15:41:37;7.05;;;3.60;;
40967;SDS011;57377;45.130;6.038;2023-05-07T15:44:03;9.93;;;4.00;;
40967;SDS011;57377;45.130;6.038;2023-05-07T15:46:28;7.40;;;3.65;;
40967;SDS011;57377;45.130;6.038;2023-05-07T15:48:54;4.20;;;3.25;;
40967;SDS011;57377;45.130;6.038;2023-05-07T15:51:20;6.40;;;3.53;;
40967;SDS011;57377;45.130;6.038;2023-05-07T15:53:46;6.25;;;3.33;;
40967;SDS011;57377;45.130;6.038;2023-05-07T15:56:13;7.47;;;3.67;;
40967;SDS011;57377;45.130;6.038;2023-05-07T15:58:38;3.92;;;3.28;;
40967;SDS011;57377;45.130;6.038;2023-05-07T16:01:04;7.82;;;3.75;;
40967;SDS011;57377;45.130;6.038;2023-05-07T16:03:29;7.20;;;3.67;;
40967;SDS011;57377;45.130;6.038;2023-05-07T16:05:56;5.90;;;3.45;;
40967;SDS011;57377;45.130;6.038;2023-05-07T16:08:27;6.07;;;3.40;;
40967;SDS011;57377;45.130;6.038;2023-05-07T16:10:52;7.45;;;3.72;;
40967;SDS011;57377;45.130;6.038;2023-05-07T16:13:18;6.20;;;3.67;;
40967;SDS011;57377;45.130;6.038;2023-05-07T16:15:47;5.25;;;4.18;;
40967;SDS011;57377;45.130;6.038;2023-05-07T16:18:12;7.22;;;3.65;;
40967;SDS011;57377;45.130;6.038;2023-05-07T16:20:40;5.95;;;3.58;;
40967;SDS011;57377;45.130;6.038;2023-05-07T16:23:07;7.57;;;3.40;;
40967;SDS011;57377;45.130;6.038;2023-05-07T16:25:32;6.07;;;3.35;;
40967;SDS011;57377;45.130;6.038;2023-05-07T16:27:58;10.32;;;4.03;;
40967;SDS011;57377;45.130;6.038;2023-05-07T16:30:26;5.82;;;3.30;;
40967;SDS011;57377;45.130;6.038;2023-05-07T16:32:51;4.53;;;3.30;;
40967;SDS011;57377;45.130;6.038;2023-05-07T16:35:16;5.80;;;3.40;;
40967;SDS011;57377;45.130;6.038;2023-05-07T16:37:42;6.80;;;3.03;;
40967;SDS011;57377;45.130;6.038;2023-05-07T16:40:10;5.60;;;3.20;;
40967;SDS011;57377;45.130;6.038;2023-05-07T16:42:36;11.82;;;3.75;;
40967;SDS011;57377;45.130;6.038;2023-05-07T16:45:02;3.92;;;2.95;;
40967;SDS011;57377;45.130;6.038;2023-05-07T16:47:31;2.95;;;2.63;;
40967;SDS011;57377;45.130;6.038;2023-05-07T16:49:56;4.53;;;3.63;;
40967;SDS011;57377;45.130;6.038;2023-05-07T16:54:49;9.18;;;3.33;;
40967;SDS011;57377;45.130;6.038;2023-05-07T16:57:14;4.30;;;3.10;;
40967;SDS011;57377;45.130;6.038;2023-05-07T16:59:40;4.32;;;3.00;;
40967;SDS011;57377;45.130;6.038;2023-05-07T17:02:05;5.20;;;3.13;;
40967;SDS011;57377;45.130;6.038;2023-05-07T17:04:30;5.65;;;3.58;;
40967;SDS011;57377;45.130;6.038;2023-05-07T17:06:56;4.80;;;3.40;;
40967;SDS011;57377;45.130;6.038;2023-05-07T17:09:22;4.32;;;3.22;;
40967;SDS011;57377;45.130;6.038;2023-05-07T17:11:48;4.45;;;2.92;;
40967;SDS011;57377;45.130;6.038;2023-05-07T17:14:13;4.63;;;2.95;;
40967;SDS011;57377;45.130;6.038;2023-05-07T17:16:38;6.35;;;2.85;;
40967;SDS011;57377;45.130;6.038;2023-05-07T17:19:04;7.32;;;3.92;;
40967;SDS011;57377;45.130;6.038;2023-05-07T17:21:29;7.63;;;3.70;;
40967;SDS011;57377;45.130;6.038;2023-05-07T17:23:54;4.03;;;3.15;;
40967;SDS011;57377;45.130;6.038;2023-05-07T17:26:20;5.03;;;3.50;;
40967;SDS011;57377;45.130;6.038;2023-05-07T17:28:45;4.28;;;2.80;;
40967;SDS011;57377;45.130;6.038;2023-05-07T17:31:11;7.88;;;3.35;;
40967;SDS011;57377;45.130;6.038;2023-05-07T17:33:36;4.20;;;3.00;;
40967;SDS011;57377;45.130;6.038;2023-05-07T17:36:01;10.70;;;4.20;;
40967;SDS011;57377;45.130;6.038;2023-05-07T17:38:27;4.30;;;3.08;;
40967;SDS011;57377;45.130;6.038;2023-05-07T17:40:53;4.43;;;3.30;;
40967;SDS011;57377;45.130;6.038;2023-05-07T17:43:19;4.28;;;3.28;;
40967;SDS011;57377;45.130;6.038;2023-05-07T17:48:12;7.53;;;3.40;;
40967;SDS011;57377;45.130;6.038;2023-05-07T17:50:37;8.35;;;3.75;;
40967;SDS011;57377;45.130;6.038;2023-05-07T17:53:02;4.88;;;3.40;;
40967;SDS011;57377;45.130;6.038;2023-05-07T17:55:29;6.07;;;3.88;;
40967;SDS011;57377;45.130;6.038;2023-05-07T17:57:57;5.30;;;4.13;;
40967;SDS011;57377;45.130;6.038;2023-05-07T18:00:23;9.93;;;3.70;;
40967;SDS011;57377;45.130;6.038;2023-05-07T18:02:50;9.13;;;4.15;;
40967;SDS011;57377;45.130;6.038;2023-05-07T18:05:16;10.98;;;4.15;;
40967;SDS011;57377;45.130;6.038;2023-05-07T18:07:41;5.85;;;3.78;;
40967;SDS011;57377;45.130;6.038;2023-05-07T18:10:06;5.13;;;3.90;;
40967;SDS011;57377;45.130;6.038;2023-05-07T18:12:32;4.18;;;3.70;;
40967;SDS011;57377;45.130;6.038;2023-05-07T18:14:58;5.10;;;3.72;;
40967;SDS011;57377;45.130;6.038;2023-05-07T18:17:23;6.07;;;3.97;;
40967;SDS011;57377;45.130;6.038;2023-05-07T18:19:50;5.65;;;3.55;;
40967;SDS011;57377;45.130;6.038;2023-05-07T18:22:15;7.03;;;4.68;;
40967;SDS011;57377;45.130;6.038;2023-05-07T18:24:41;8.85;;;4.45;;
40967;SDS011;57377;45.130;6.038;2023-05-07T18:27:06;7.05;;;3.72;;
40967;SDS011;57377;45.130;6.038;2023-05-07T18:29:31;6.93;;;4.47;;
40967;SDS011;57377;45.130;6.038;2023-05-07T18:31:57;5.45;;;4.00;;
40967;SDS011;57377;45.130;6.038;2023-05-07T18:34:22;6.10;;;3.90;;
40967;SDS011;57377;45.130;6.038;2023-05-07T18:36:47;6.35;;;4.05;;
40967;SDS011;57377;45.130;6.038;2023-05-07T18:39:13;7.90;;;4.60;;
40967;SDS011;57377;45.130;6.038;2023-05-07T18:41:38;7.72;;;4.13;;
40967;SDS011;57377;45.130;6.038;2023-05-07T18:44:04;8.30;;;4.18;;
40967;SDS011;57377;45.130;6.038;2023-05-07T18:46:30;4.13;;;3.47;;
40967;SDS011;57377;45.130;6.038;2023-05-07T18:48:55;4.70;;;3.42;;
40967;SDS011;57377;45.130;6.038;2023-05-07T18:51:21;7.05;;;3.90;;
40967;SDS011;57377;45.130;6.038;2023-05-07T18:53:46;10.88;;;4.22;;
40967;SDS011;57377;45.130;6.038;2023-05-07T18:56:12;4.15;;;3.20;;
40967;SDS011;57377;45.130;6.038;2023-05-07T18:58:40;7.72;;;3.80;;
40967;SDS011;57377;45.130;6.038;2023-05-07T19:01:06;5.80;;;3.70;;
40967;SDS011;57377;45.130;6.038;2023-05-07T19:03:32;4.43;;;4.03;;
40967;SDS011;57377;45.130;6.038;2023-05-07T19:05:59;7.28;;;3.65;;
40967;SDS011;57377;45.130;6.038;2023-05-07T19:08:25;5.55;;;3.75;;
40967;SDS011;57377;45.130;6.038;2023-05-07T19:10:50;5.95;;;3.45;;
40967;SDS011;57377;45.130;6.038;2023-05-07T19:13:15;4.80;;;3.40;;
40967;SDS011;57377;45.130;6.038;2023-05-07T19:15:41;8.52;;;3.85;;
40967;SDS011;57377;45.130;6.038;2023-05-07T19:18:06;6.68;;;3.72;;
40967;SDS011;57377;45.130;6.038;2023-05-07T19:20:32;4.95;;;4.13;;
40967;SDS011;57377;45.130;6.038;2023-05-07T19:22:57;5.82;;;3.70;;
40967;SDS011;57377;45.130;6.038;2023-05-07T19:25:22;6.82;;;3.92;;
40967;SDS011;57377;45.130;6.038;2023-05-07T19:27:48;6.75;;;3.85;;
40967;SDS011;57377;45.130;6.038;2023-05-07T19:30:15;4.53;;;3.63;;
40967;SDS011;57377;45.130;6.038;2023-05-07T19:32:40;6.40;;;3.92;;
40967;SDS011;57377;45.130;6.038;2023-05-07T19:35:06;7.28;;;3.90;;
40967;SDS011;57377;45.130;6.038;2023-05-07T19:37:31;7.28;;;4.63;;
40967;SDS011;57377;45.130;6.038;2023-05-07T19:39:57;8.38;;;4.28;;
40967;SDS011;57377;45.130;6.038;2023-05-07T19:42:28;7.25;;;3.72;;
40967;SDS011;57377;45.130;6.038;2023-05-07T19:44:54;6.57;;;4.00;;
40967;SDS011;57377;45.130;6.038;2023-05-07T19:47:19;4.90;;;3.55;;
40967;SDS011;57377;45.130;6.038;2023-05-07T19:49:45;7.18;;;3.95;;
40967;SDS011;57377;45.130;6.038;2023-05-07T19:52:10;5.88;;;3.70;;
40967;SDS011;57377;45.130;6.038;2023-05-07T19:54:35;9.02;;;4.40;;
40967;SDS011;57377;45.130;6.038;2023-05-07T19:57:01;9.15;;;4.05;;
40967;SDS011;57377;45.130;6.038;2023-05-07T19:59:26;6.63;;;3.92;;
40967;SDS011;57377;45.130;6.038;2023-05-07T20:01:51;7.28;;;4.65;;
40967;SDS011;57377;45.130;6.038;2023-05-07T20:04:17;7.88;;;3.63;;
40967;SDS011;57377;45.130;6.038;2023-05-07T20:06:42;8.07;;;3.90;;
40967;SDS011;57377;45.130;6.038;2023-05-07T20:09:08;6.20;;;4.25;;
40967;SDS011;57377;45.130;6.038;2023-05-07T20:11:36;8.18;;;4.32;;
40967;SDS011;57377;45.130;6.038;2023-05-07T20:14:02;6.05;;;4.50;;
40967;SDS011;57377;45.130;6.038;2023-05-07T20:16:29;8.93;;;4.53;;
40967;SDS011;57377;45.130;6.038;2023-05-07T20:18:55;6.72;;;4.20;;
40967;SDS011;57377;45.130;6.038;2023-05-07T20:21:20;7.40;;;4.10;;
40967;SDS011;57377;45.130;6.038;2023-05-07T20:23:45;5.43;;;4.18;;
40967;SDS011;57377;45.130;6.038;2023-05-07T20:26:11;5.82;;;3.90;;
40967;SDS011;57377;45.130;6.038;2023-05-07T20:28:36;7.93;;;4.53;;
40967;SDS011;57377;45.130;6.038;2023-05-07T20:31:02;5.45;;;4.40;;
40967;SDS011;57377;45.130;6.038;2023-05-07T20:33:28;5.35;;;4.30;;
40967;SDS011;57377;45.130;6.038;2023-05-07T20:35:56;6.18;;;4.28;;
40967;SDS011;57377;45.130;6.038;2023-05-07T20:38:22;7.75;;;4.60;;
40967;SDS011;57377;45.130;6.038;2023-05-07T20:40:47;6.60;;;4.65;;
40967;SDS011;57377;45.130;6.038;2023-05-07T20:43:13;6.75;;;4.00;;
40967;SDS011;57377;45.130;6.038;2023-05-07T20:45:38;8.68;;;4.80;;
40967;SDS011;57377;45.130;6.038;2023-05-07T20:48:03;8.15;;;4.35;;
40967;SDS011;57377;45.130;6.038;2023-05-07T20:50:29;5.55;;;4.57;;
40967;SDS011;57377;45.130;6.038;2023-05-07T20:52:54;8.73;;;5.10;;
40967;SDS011;57377;45.130;6.038;2023-05-07T20:55:20;6.07;;;4.70;;
40967;SDS011;57377;45.130;6.038;2023-05-07T20:57:45;10.88;;;4.15;;
40967;SDS011;57377;45.130;6.038;2023-05-07T21:00:11;10.25;;;4.28;;
40967;SDS011;57377;45.130;6.038;2023-05-07T21:02:36;7.47;;;4.95;;
40967;SDS011;57377;45.130;6.038;2023-05-07T21:05:02;8.27;;;5.47;;
40967;SDS011;57377;45.130;6.038;2023-05-07T21:07:28;13.05;;;7.30;;
40967;SDS011;57377;45.130;6.038;2023-05-07T21:09:53;10.13;;;5.65;;
40967;SDS011;57377;45.130;6.038;2023-05-07T21:12:20;10.13;;;5.10;;
40967;SDS011;57377;45.130;6.038;2023-05-07T21:14:46;8.10;;;5.30;;
40967;SDS011;57377;45.130;6.038;2023-05-07T21:17:11;9.57;;;4.80;;
40967;SDS011;57377;45.130;6.038;2023-05-07T21:19:36;7.78;;;4.85;;
40967;SDS011;57377;45.130;6.038;2023-05-07T21:22:02;10.18;;;4.85;;
40967;SDS011;57377;45.130;6.038;2023-05-07T21:24:29;5.28;;;4.25;;
40967;SDS011;57377;45.130;6.038;2023-05-07T21:26:56;7.75;;;4.95;;
40967;SDS011;57377;45.130;6.038;2023-05-07T21:29:21;5.93;;;4.80;;
40967;SDS011;57377;45.130;6.038;2023-05-07T21:31:47;6.25;;;4.72;;
40967;SDS011;57377;45.130;6.038;2023-05-07T21:34:12;5.90;;;4.72;;
40967;SDS011;57377;45.130;6.038;2023-05-07T21:36:38;8.57;;;4.97;;
40967;SDS011;57377;45.130;6.038;2023-05-07T21:39:03;10.10;;;7.05;;
40967;SDS011;57377;45.130;6.038;2023-05-07T21:41:29;11.70;;;5.82;;
40967;SDS011;57377;45.130;6.038;2023-05-07T21:43:54;9.25;;;5.75;;
40967;SDS011;57377;45.130;6.038;2023-05-07T21:46:19;5.50;;;4.90;;
40967;SDS011;57377;45.130;6.038;2023-05-07T21:48:45;5.63;;;4.70;;
40967;SDS011;57377;45.130;6.038;2023-05-07T21:51:10;7.75;;;5.03;;
40967;SDS011;57377;45.130;6.038;2023-05-07T21:53:37;13.10;;;5.65;;
40967;SDS011;57377;45.130;6.038;2023-05-07T21:56:03;7.80;;;5.70;;
40967;SDS011;57377;45.130;6.038;2023-05-07T21:58:29;6.18;;;4.90;;
40967;SDS011;57377;45.130;6.038;2023-05-07T22:00:57;5.70;;;4.70;;
40967;SDS011;57377;45.130;6.038;2023-05-07T22:03:24;5.43;;;4.50;;
40967;SDS011;57377;45.130;6.038;2023-05-07T22:05:49;5.18;;;4.00;;
40967;SDS011;57377;45.130;6.038;2023-05-07T22:08:14;8.18;;;4.22;;
40967;SDS011;57377;45.130;6.038;2023-05-07T22:10:40;6.18;;;3.30;;
40967;SDS011;57377;45.130;6.038;2023-05-07T22:13:05;4.55;;;3.40;;
40967;SDS011;57377;45.130;6.038;2023-05-07T22:15:31;6.88;;;3.13;;
40967;SDS011;57377;45.130;6.038;2023-05-07T22:17:56;5.35;;;2.58;;
40967;SDS011;57377;45.130;6.038;2023-05-07T22:20:22;5.28;;;3.15;;
40967;SDS011;57377;45.130;6.038;2023-05-07T22:22:48;7.40;;;2.60;;
40967;SDS011;57377;45.130;6.038;2023-05-07T22:25:14;3.10;;;2.00;;
40967;SDS011;57377;45.130;6.038;2023-05-07T22:27:40;2.70;;;1.60;;
40967;SDS011;57377;45.130;6.038;2023-05-07T22:30:06;7.53;;;2.35;;
40967;SDS011;57377;45.130;6.038;2023-05-07T22:32:32;3.58;;;1.73;;
40967;SDS011;57377;45.130;6.038;2023-05-07T22:34:57;2.20;;;1.52;;
40967;SDS011;57377;45.130;6.038;2023-05-07T22:37:23;4.60;;;1.67;;
40967;SDS011;57377;45.130;6.038;2023-05-07T22:39:48;2.42;;;1.88;;
40967;SDS011;57377;45.130;6.038;2023-05-07T22:42:13;2.35;;;1.85;;
40967;SDS011;57377;45.130;6.038;2023-05-07T22:44:39;2.05;;;1.60;;
40967;SDS011;57377;45.130;6.038;2023-05-07T22:47:04;2.83;;;2.20;;
40967;SDS011;57377;45.130;6.038;2023-05-07T22:49:29;2.83;;;1.90;;
40967;SDS011;57377;45.130;6.038;2023-05-07T22:51:55;3.17;;;1.98;;
40967;SDS011;57377;45.130;6.038;2023-05-07T22:54:20;4.10;;;1.90;;
40967;SDS011;57377;45.130;6.038;2023-05-07T22:56:45;4.00;;;1.80;;
40967;SDS011;57377;45.130;6.038;2023-05-07T22:59:11;2.08;;;1.88;;
40967;SDS011;57377;45.130;6.038;2023-05-07T23:01:37;3.22;;;1.80;;
40967;SDS011;57377;45.130;6.038;2023-05-07T23:04:02;6.00;;;1.90;;
40967;SDS011;57377;45.130;6.038;2023-05-07T23:06:28;1.90;;;1.67;;
40967;SDS011;57377;45.130;6.038;2023-05-07T23:08:53;2.28;;;1.85;;
40967;SDS011;57377;45.130;6.038;2023-05-07T23:11:19;3.70;;;1.83;;
40967;SDS011;57377;45.130;6.038;2023-05-07T23:13:44;5.20;;;1.83;;
40967;SDS011;57377;45.130;6.038;2023-05-07T23:16:10;2.13;;;1.88;;
40967;SDS011;57377;45.130;6.038;2023-05-07T23:18:35;5.70;;;2.97;;
40967;SDS011;57377;45.130;6.038;2023-05-07T23:21:01;7.43;;;4.10;;
40967;SDS011;57377;45.130;6.038;2023-05-07T23:23:26;5.72;;;3.08;;
40967;SDS011;57377;45.130;6.038;2023-05-07T23:25:57;6.60;;;2.80;;
40967;SDS011;57377;45.130;6.038;2023-05-07T23:28:22;4.60;;;2.42;;
40967;SDS011;57377;45.130;6.038;2023-05-07T23:30:48;1.88;;;1.23;;
40967;SDS011;57377;45.130;6.038;2023-05-07T23:33:13;8.50;;;1.20;;
40967;SDS011;57377;45.130;6.038;2023-05-07T23:35:38;8.48;;;1.20;;
40967;SDS011;57377;45.130;6.038;2023-05-07T23:38:04;2.20;;;1.00;;
40967;SDS011;57377;45.130;6.038;2023-05-07T23:40:29;5.38;;;1.20;;
40967;SDS011;57377;45.130;6.038;2023-05-07T23:42:55;3.08;;;1.40;;
40967;SDS011;57377;45.130;6.038;2023-05-07T23:45:20;6.05;;;1.45;;
40967;SDS011;57377;45.130;6.038;2023-05-07T23:47:45;4.80;;;1.52;;
40967;SDS011;57377;45.130;6.038;2023-05-07T23:50:11;2.13;;;1.55;;
40967;SDS011;57377;45.130;6.038;2023-05-07T23:52:36;2.63;;;1.67;;
40967;SDS011;57377;45.130;6.038;2023-05-07T23:55:01;2.30;;;1.50;;
40967;SDS011;57377;45.130;6.038;2023-05-07T23:57:27;2.92;;;1.63;;
40967;SDS011;57377;45.130;6.038;2023-05-07T23:59:52;11.90;;;2.15;;
